aviador You're here:

KIZG Decoded Metar

FRYEBURG in ME, USA
Report Time2017-11-19 20:54:00
UTC Time2017-11-19 21:48:33
Flight Rules vfr VFR
Wind270° at 18 Gusting to 30 kt
W.Decomp.*RWY 32: 15.1 kt HW 9.8 kt LCW
W.Rank270° ranks 5
Current wind is above 270° avg. (6.6)
Visibility9999 m
Phenomena:N/A
Clouds:Scattered 035 Hf
Scattered 043 Hf
Expected CloudBase > 2,000 ft AGL from Temp-Dew spread
CeilingNone
Temp03°C (ISA -11)
Dew Point-2°C (70% RH)
AAT-5.7°C
QNH991 hPa
Density Alt-75 ft
Elevation443 ft
Report Wrong Elevation
Raw Report
METAR KIZG 192054Z AUTO 27018G30KT 10SM SCT035 SCT043 03/M02 A2925
RMK AO2 PK WND 27030/2052 SLP909 60000 T00331022 51055=

Extra information for KIZG:More info

Metar Taf Metar & Taf Last 4 Metars F.Rules Stats Wind Profile Meteogram Temp Stats Airport Information Weather charts Add Link Nearby VenuesMetar ALERT Operation Metar Decoded Social comments

AIRNAV info for KIZG